Time;durP1;ratioP1;P1;durP2;ratioP2;P2;SDS_P1;SDS_P2;PMS_P1;PMS_P2;Temp;Humidity;BMP_temperature;BMP_pressure;BME280_temperature;BME280_humidity;BME280_pressure;Samples;Min_cycle;Max_cycle;Signal;HPM_P1;HPM_P2
2023/04/21 00:02:49;;;;;;;;;;;;;;;14.94;48.86;100385.91;5444152;32;35062;-61
2023/04/21 00:05:51;;;;;;;;;;;;;;;14.42;50.07;100388.75;5443912;32;35033;-74
2023/04/21 00:08:53;;;;;;;;;;;;;;;13.97;50.74;100392.94;5448759;32;35581;-61
2023/04/21 00:11:55;;;;;;;;;;;;;;;14.36;49.50;100378.53;5440758;32;35128;-73
2023/04/21 00:14:57;;;;;;;;;;;;;;;14.41;49.75;100375.63;5434759;32;34738;-74
2023/04/21 00:17:59;;;;;;;;;;;;;;;14.83;48.42;100377.72;5441949;32;34327;-74
2023/04/21 00:21:01;;;;;;;;;;;;;;;14.47;48.85;100372.69;5449152;32;35002;-75
2023/04/21 00:24:04;;;;;;;;;;;;;;;14.11;49.67;100375.53;5439276;32;35787;-61
2023/04/21 00:27:06;;;;;;;;;;;;;;;13.78;50.49;100381.66;5430898;32;34311;-60
2023/04/21 00:30:08;;;;;;;;;;;;;;;13.85;50.39;100374.25;5431182;32;34763;-72
2023/04/21 00:33:10;;;;;;;;;;;;;;;14.62;48.47;100363.91;5434908;32;43276;-72
2023/04/21 00:36:12;;;;;;;;;;;;;;;14.00;49.66;100371.66;5449385;32;34932;-72
2023/04/21 00:39:14;;;;;;;;;;;;;;;13.90;49.55;100367.78;5442486;32;34406;-72
2023/04/21 00:42:16;;;;;;;;;;;;;;;14.50;48.18;100362.81;5450798;32;35721;-61
2023/04/21 00:45:18;;;;;;;;;;;;;;;14.44;48.62;100368.41;5442157;32;35225;-74
2023/04/21 00:48:20;;;;;;;;;;;;;;;15.05;46.73;100370.25;5442319;32;33294;-61
2023/04/21 00:51:21;;;;;;;;;;;;;;;14.75;47.16;100372.87;5446928;32;35708;-61
2023/04/21 00:54:24;;;;;;;;;;;;;;;14.10;49.05;100369.37;5426102;32;34882;-73
2023/04/21 00:57:27;;;;;;;;;;;;;;;14.24;48.83;100366.00;5449674;32;36065;-61
2023/04/21 01:00:29;;;;;;;;;;;;;;;14.60;47.42;100349.91;5427160;32;35770;-72
2023/04/21 01:03:31;;;;;;;;;;;;;;;14.14;48.87;100370.06;5448245;32;34743;-73
2023/04/21 01:06:33;;;;;;;;;;;;;;;13.94;49.34;100371.12;5442210;32;34460;-60
2023/04/21 01:09:35;;;;;;;;;;;;;;;14.46;48.12;100363.91;5442698;32;34439;-73
2023/04/21 01:12:41;;;;;;;;;;;;;;;14.18;48.74;100369.81;5433164;32;34392;-74
2023/04/21 01:15:42;;;;;;;;;;;;;;;13.98;48.83;100370.06;5409624;32;44968;-61
2023/04/21 01:18:45;;;;;;;;;;;;;;;14.16;48.38;100369.03;5448571;32;35260;-73
2023/04/21 01:21:46;;;;;;;;;;;;;;;14.39;47.92;100369.59;5441016;32;34277;-60
2023/04/21 01:24:48;;;;;;;;;;;;;;;14.03;48.67;100371.50;5448256;32;34884;-73
2023/04/21 01:27:51;;;;;;;;;;;;;;;13.51;49.95;100370.72;5442002;32;35417;-68
2023/04/21 01:30:53;;;;;;;;;;;;;;;13.97;48.92;100360.38;5422883;32;35040;-61
2023/04/21 01:33:55;;;;;;;;;;;;;;;13.93;49.47;100348.31;5448590;32;34868;-61
2023/04/21 01:36:56;;;;;;;;;;;;;;;14.34;48.28;100359.25;5441966;32;34986;-74
2023/04/21 01:40:00;;;;;;;;;;;;;;;14.78;47.07;100356.81;5432686;32;34381;-60
2023/04/21 01:43:02;;;;;;;;;;;;;;;14.08;48.84;100358.87;5441382;32;34777;-62
2023/04/21 01:46:04;;;;;;;;;;;;;;;13.69;49.02;100361.00;5448447;32;34602;-61
2023/04/21 01:49:06;;;;;;;;;;;;;;;14.02;48.00;100340.72;5437508;32;34791;-61
2023/04/21 01:52:08;;;;;;;;;;;;;;;13.85;48.98;100361.94;5439010;32;34679;-73
2023/04/21 01:55:10;;;;;;;;;;;;;;;14.71;46.36;100349.31;5433534;32;42950;-61
2023/04/21 01:58:12;;;;;;;;;;;;;;;14.38;46.87;100344.94;5439304;32;34949;-61
2023/04/21 02:01:14;;;;;;;;;;;;;;;13.95;48.28;100357.00;5450307;32;35777;-74
2023/04/21 02:04:16;;;;;;;;;;;;;;;14.55;46.82;100342.22;5439421;32;34926;-74
2023/04/21 02:07:18;;;;;;;;;;;;;;;14.58;46.59;100343.84;5447202;32;34985;-62
2023/04/21 02:10:20;;;;;;;;;;;;;;;15.00;45.07;100350.28;5425527;32;35464;-61
2023/04/21 02:13:22;;;;;;;;;;;;;;;14.17;46.00;100340.81;5422563;32;35479;-61
2023/04/21 02:16:25;;;;;;;;;;;;;;;14.10;46.71;100356.16;5433625;32;34588;-73
2023/04/21 02:19:27;;;;;;;;;;;;;;;13.74;48.03;100361.63;5425190;32;35546;-73
2023/04/21 02:22:29;;;;;;;;;;;;;;;14.23;46.96;100345.78;5447664;32;34963;-60
2023/04/21 02:25:31;;;;;;;;;;;;;;;14.30;46.63;100352.44;5422786;32;35072;-73
2023/04/21 02:28:33;;;;;;;;;;;;;;;14.05;47.18;100356.44;5447770;32;35571;-63
2023/04/21 02:31:34;;;;;;;;;;;;;;;14.37;46.37;100356.47;5422209;32;34871;-71
2023/04/21 02:34:50;;;;;;;;;;;;;;;14.50;45.80;100354.88;5435840;32;34369;-75
2023/04/21 02:37:52;;;;;;;;;;;;;;;14.29;46.35;100364.78;5449130;32;36677;-74
2023/04/21 02:40:55;;;;;;;;;;;;;;;14.95;44.45;100349.72;5412376;32;35461;-74
2023/04/21 02:43:57;;;;;;;;;;;;;;;14.91;44.42;100356.97;5432131;32;34454;-62
2023/04/21 02:47:01;;;;;;;;;;;;;;;14.56;45.36;100354.53;5440823;32;35052;-68
2023/04/21 02:50:03;;;;;;;;;;;;;;;14.68;45.71;100357.41;5442200;32;34278;-73
2023/04/21 02:53:05;;;;;;;;;;;;;;;13.97;46.87;100353.31;5443521;32;35614;-61
2023/04/21 02:56:10;;;;;;;;;;;;;;;13.97;47.03;100365.69;5441691;32;35648;-60
2023/04/21 02:59:15;;;;;;;;;;;;;;;13.47;47.56;100345.44;5450461;32;44521;-62
2023/04/21 03:02:17;;;;;;;;;;;;;;;13.76;46.83;100368.53;5441951;32;35792;-62
2023/04/21 03:05:23;;;;;;;;;;;;;;;14.57;45.00;100365.97;5449387;32;35650;-63
2023/04/21 03:08:25;;;;;;;;;;;;;;;14.43;45.14;100361.41;5442860;32;35272;-61
2023/04/21 03:11:27;;;;;;;;;;;;;;;13.59;46.95;100372.97;5444957;32;34353;-69
2023/04/21 03:14:29;;;;;;;;;;;;;;;13.66;47.16;100377.03;5447906;32;34313;-61
2023/04/21 03:17:31;;;;;;;;;;;;;;;13.21;48.40;100370.53;5426977;32;35697;-70
2023/04/21 03:20:34;;;;;;;;;;;;;;;13.40;47.89;100375.72;5435841;32;34859;-61
2023/04/21 03:23:36;;;;;;;;;;;;;;;13.30;48.03;100377.97;5426607;32;35461;-60
2023/04/21 03:26:39;;;;;;;;;;;;;;;13.14;48.22;100374.38;5450201;32;34539;-62
2023/04/21 03:29:41;;;;;;;;;;;;;;;13.18;48.51;100387.31;5414942;32;46978;-75
2023/04/21 03:32:43;;;;;;;;;;;;;;;14.18;45.95;100377.75;5433696;32;35184;-62
2023/04/21 03:35:45;;;;;;;;;;;;;;;14.03;45.41;100371.50;5448166;32;35187;-72
2023/04/21 03:38:47;;;;;;;;;;;;;;;13.25;47.70;100386.09;5442665;32;35481;-73
2023/04/21 03:41:48;;;;;;;;;;;;;;;13.21;47.79;100371.38;5449960;32;35149;-61
2023/04/21 03:44:50;;;;;;;;;;;;;;;13.23;47.96;100384.50;5441800;32;34603;-69
2023/04/21 03:47:55;;;;;;;;;;;;;;;13.10;48.25;100392.13;5445926;32;35021;-68
2023/04/21 03:50:57;;;;;;;;;;;;;;;13.39;47.55;100385.41;5440355;32;34436;-63
2023/04/21 03:53:59;;;;;;;;;;;;;;;12.91;49.38;100392.16;5443045;32;34809;-74
2023/04/21 03:57:01;;;;;;;;;;;;;;;13.49;47.50;100385.81;5447143;32;34968;-61
2023/04/21 04:00:04;;;;;;;;;;;;;;;12.98;49.14;100400.63;5440406;32;35046;-61
2023/04/21 04:03:06;;;;;;;;;;;;;;;12.91;49.44;100399.22;5432615;32;34286;-73
2023/04/21 04:06:08;;;;;;;;;;;;;;;12.70;50.10;100411.66;5436546;32;34833;-73
2023/04/21 04:09:10;;;;;;;;;;;;;;;12.88;49.75;100405.53;5449297;32;44731;-61
2023/04/21 04:12:12;;;;;;;;;;;;;;;12.93;49.79;100407.91;5443300;32;34828;-74
2023/04/21 04:15:14;;;;;;;;;;;;;;;12.91;49.73;100404.50;5442372;32;34463;-71
2023/04/21 04:18:16;;;;;;;;;;;;;;;12.82;50.52;100418.16;5436552;32;35231;-74
2023/04/21 04:21:18;;;;;;;;;;;;;;;13.44;48.80;100417.72;5440824;32;34874;-62
2023/04/21 04:24:20;;;;;;;;;;;;;;;13.03;50.05;100419.75;5423587;32;34461;-61
2023/04/21 04:27:22;;;;;;;;;;;;;;;13.70;48.39;100420.81;5441587;32;34838;-73
2023/04/21 04:30:26;;;;;;;;;;;;;;;13.26;49.08;100427.41;5433845;32;34779;-62
2023/04/21 04:33:28;;;;;;;;;;;;;;;12.70;50.39;100427.50;5441014;32;35040;-74
2023/04/21 04:36:31;;;;;;;;;;;;;;;12.92;50.15;100427.31;5442080;32;35320;-61
2023/04/21 04:39:32;;;;;;;;;;;;;;;13.20;49.46;100434.72;5452307;32;35095;-69
2023/04/21 04:42:35;;;;;;;;;;;;;;;13.14;49.64;100429.78;5442267;32;34532;-73
2023/04/21 04:45:37;;;;;;;;;;;;;;;13.54;48.15;100432.19;5451269;32;35256;-73
2023/04/21 04:48:39;;;;;;;;;;;;;;;13.09;49.48;100424.72;5441739;32;34299;-61
2023/04/21 04:51:41;;;;;;;;;;;;;;;13.73;47.98;100434.75;5445472;32;46920;-62
2023/04/21 04:54:43;;;;;;;;;;;;;;;13.79;47.51;100428.28;5444148;32;34979;-62
2023/04/21 04:57:45;;;;;;;;;;;;;;;14.81;45.27;100429.84;5426197;32;34876;-73
2023/04/21 05:00:47;;;;;;;;;;;;;;;15.57;43.23;100417.50;5451448;32;35087;-63
2023/04/21 05:03:49;;;;;;;;;;;;;;;15.27;43.21;100408.72;5428858;32;37480;-74
2023/04/21 05:06:51;;;;;;;;;;;;;;;15.51;42.38;100422.31;5449533;32;34368;-74
2023/04/21 05:09:53;;;;;;;;;;;;;;;16.82;39.62;100418.72;5443110;32;34350;-72
2023/04/21 05:12:55;;;;;;;;;;;;;;;15.83;41.10;100423.06;5450871;32;34736;-61
2023/04/21 05:15:57;;;;;;;;;;;;;;;16.09;40.27;100419.69;5442883;32;34963;-62
2023/04/21 05:19:02;;;;;;;;;;;;;;;16.25;40.01;100430.22;5442985;32;34595;-76
2023/04/21 05:22:07;;;;;;;;;;;;;;;16.31;40.31;100421.03;5449077;32;34627;-75
2023/04/21 05:25:09;;;;;;;;;;;;;;;16.12;40.65;100427.47;5428722;32;35497;-62
2023/04/21 05:28:11;;;;;;;;;;;;;;;16.67;39.38;100424.00;5449093;32;44632;-73
2023/04/21 05:31:13;;;;;;;;;;;;;;;18.11;36.92;100425.09;5415875;32;35035;-73
2023/04/21 05:34:15;;;;;;;;;;;;;;;17.18;38.28;100426.91;5451132;32;34616;-63
2023/04/21 05:37:17;;;;;;;;;;;;;;;17.73;37.42;100430.37;5442966;32;35669;-74
2023/04/21 05:40:19;;;;;;;;;;;;;;;17.44;37.85;100434.97;5427846;32;34471;-74
2023/04/21 05:43:22;;;;;;;;;;;;;;;18.67;36.23;100426.41;5451449;32;36609;-75
2023/04/21 05:46:24;;;;;;;;;;;;;;;18.24;36.84;100430.41;5442750;32;34282;-61
2023/04/21 05:49:25;;;;;;;;;;;;;;;18.86;35.23;100425.06;5436527;32;35282;-62
2023/04/21 05:52:27;;;;;;;;;;;;;;;19.33;34.25;100423.37;5443379;32;34339;-64
2023/04/21 05:55:29;;;;;;;;;;;;;;;20.39;32.07;100426.75;5447509;32;34881;-73
2023/04/21 05:58:32;;;;;;;;;;;;;;;19.91;33.07;100425.16;5434494;32;35614;-61
2023/04/21 06:01:34;;;;;;;;;;;;;;;19.37;33.44;100425.69;5446035;32;34904;-73
2023/04/21 06:04:36;;;;;;;;;;;;;;;19.62;32.83;100418.53;5453648;32;34375;-74
2023/04/21 06:07:39;;;;;;;;;;;;;;;19.65;32.39;100423.66;5428292;32;36195;-76
2023/04/21 06:10:41;;;;;;;;;;;;;;;21.11;30.56;100421.81;5438228;32;46723;-65
2023/04/21 06:13:43;;;;;;;;;;;;;;;19.05;32.77;100422.75;5455361;32;35433;-66
2023/04/21 06:16:45;;;;;;;;;;;;;;;19.25;32.36;100434.59;5452256;32;35757;-62
2023/04/21 06:19:51;;;;;;;;;;;;;;;19.79;31.93;100426.09;5452106;32;35336;-71
2023/04/21 06:22:53;;;;;;;;;;;;;;;20.66;30.27;100424.56;5433333;32;34382;-63
2023/04/21 06:25:59;;;;;;;;;;;;;;;21.61;28.19;100422.97;5453563;32;35465;-71
2023/04/21 06:29:01;;;;;;;;;;;;;;;20.46;29.53;100434.19;5443568;32;37852;-69
2023/04/21 06:32:03;;;;;;;;;;;;;;;19.92;29.93;100432.19;5436933;32;34627;-70
2023/04/21 06:35:05;;;;;;;;;;;;;;;20.66;29.21;100421.06;5443565;32;35249;-65
2023/04/21 06:38:07;;;;;;;;;;;;;;;19.60;30.10;100425.81;5447076;32;34296;-72
2023/04/21 06:41:09;;;;;;;;;;;;;;;20.44;28.74;100420.09;5453326;32;34379;-74
2023/04/21 06:44:15;;;;;;;;;;;;;;;19.94;29.34;100424.06;5429107;32;46878;-64
2023/04/21 06:47:17;;;;;;;;;;;;;;;20.59;28.77;100415.38;5448302;32;34406;-63
2023/04/21 06:50:18;;;;;;;;;;;;;;;21.90;26.54;100415.12;5424152;32;34315;-72
2023/04/21 06:53:20;;;;;;;;;;;;;;;22.79;25.88;100406.47;5446454;32;34388;-70
2023/04/21 06:56:23;;;;;;;;;;;;;;;22.03;27.09;100416.75;5439171;32;38050;-69
2023/04/21 06:59:25;;;;;;;;;;;;;;;21.90;26.28;100419.66;5448230;32;35041;-62
2023/04/21 07:02:27;;;;;;;;;;;;;;;23.79;24.17;100407.13;5450971;32;35561;-73
2023/04/21 07:05:31;;;;;;;;;;;;;;;22.09;26.18;100408.19;5427502;32;34407;-72
2023/04/21 07:08:33;;;;;;;;;;;;;;;24.18;23.45;100393.59;5449413;32;35460;-68
2023/04/21 07:11:35;;;;;;;;;;;;;;;22.25;26.01;100407.72;5447002;32;34217;-64
2023/04/21 07:14:37;;;;;;;;;;;;;;;23.47;24.66;100402.06;5452137;32;36023;-75
2023/04/21 07:17:39;;;;;;;;;;;;;;;22.25;25.96;100410.41;5429221;32;34704;-64
2023/04/21 07:20:41;;;;;;;;;;;;;;;23.63;24.62;100398.81;5438296;32;42817;-65
2023/04/21 07:23:43;;;;;;;;;;;;;;;23.94;24.16;100389.56;5450033;32;35846;-68
2023/04/21 07:26:45;;;;;;;;;;;;;;;23.10;25.38;100400.06;5443191;32;34401;-64
2023/04/21 07:29:47;;;;;;;;;;;;;;;21.66;26.62;100390.47;5442242;32;35969;-71
2023/04/21 07:32:48;;;;;;;;;;;;;;;21.97;26.12;100403.91;5439175;32;34366;-74
2023/04/21 07:35:51;;;;;;;;;;;;;;;22.46;26.06;100395.12;5456870;32;35071;-74
2023/04/21 07:38:53;;;;;;;;;;;;;;;21.31;27.08;100409.50;5452784;32;34244;-62
2023/04/21 07:41:55;;;;;;;;;;;;;;;22.28;26.16;100396.72;5448381;32;34368;-70
2023/04/21 07:44:57;;;;;;;;;;;;;;;23.96;23.69;100394.81;5461154;32;36032;-70
2023/04/21 07:47:59;;;;;;;;;;;;;;;25.20;22.37;100386.25;5451621;32;35465;-63
2023/04/21 07:51:02;;;;;;;;;;;;;;;25.04;22.01;100388.72;5456927;32;34346;-64
2023/04/21 07:54:04;;;;;;;;;;;;;;;25.19;22.52;100391.78;5440159;32;34301;-64
2023/04/21 07:57:06;;;;;;;;;;;;;;;23.42;23.44;100401.62;5460571;32;35914;-72
2023/04/21 08:00:09;;;;;;;;;;;;;;;23.49;23.78;100400.91;5448884;32;34712;-62
2023/04/21 08:03:11;;;;;;;;;;;;;;;23.69;23.92;100400.91;5436049;32;45296;-75
2023/04/21 08:06:13;;;;;;;;;;;;;;;23.69;23.15;100401.75;5457405;32;34273;-69
2023/04/21 08:09:15;;;;;;;;;;;;;;;22.50;24.41;100396.56;5439113;32;36417;-68
2023/04/21 08:12:18;;;;;;;;;;;;;;;25.44;21.32;100385.63;5458753;32;34303;-72
2023/04/21 08:15:20;;;;;;;;;;;;;;;25.10;21.97;100388.16;5450755;32;34339;-62
2023/04/21 08:18:22;;;;;;;;;;;;;;;25.56;21.02;100378.12;5452250;32;35445;-72
2023/04/21 08:21:24;;;;;;;;;;;;;;;25.35;21.22;100376.63;5435238;32;34127;-63
2023/04/21 08:24:26;;;;;;;;;;;;;;;24.57;22.24;100392.44;5443725;32;34170;-74
2023/04/21 08:27:28;;;;;;;;;;;;;;;24.25;22.36;100386.63;5443039;32;32776;-69
2023/04/21 08:30:30;;;;;;;;;;;;;;;23.61;23.41;100381.97;5425798;32;35446;-71
2023/04/21 08:33:32;;;;;;;;;;;;;;;26.45;20.38;100375.16;5436514;32;35628;-63
2023/04/21 08:36:34;;;;;;;;;;;;;;;23.60;23.19;100377.62;5441302;32;34326;-62
2023/04/21 08:39:36;;;;;;;;;;;;;;;24.93;21.37;100386.28;5452869;32;35397;-63
2023/04/21 08:42:38;;;;;;;;;;;;;;;24.78;20.90;100386.78;5444435;32;35495;-70
2023/04/21 08:45:40;;;;;;;;;;;;;;;26.05;19.93;100386.56;5444517;32;44608;-63
2023/04/21 08:48:42;;;;;;;;;;;;;;;24.97;20.51;100376.91;5421040;32;34291;-64
2023/04/21 08:51:44;;;;;;;;;;;;;;;24.66;20.84;100366.50;5431179;32;36922;-72
2023/04/21 08:54:50;;;;;;;;;;;;;;;25.33;20.08;100384.00;5445460;32;34162;-64
2023/04/21 08:57:52;;;;;;;;;;;;;;;25.55;19.76;100376.44;5430654;32;34185;-72
2023/04/21 09:00:55;;;;;;;;;;;;;;;24.94;20.66;100364.62;5427329;32;34528;-66
2023/04/21 09:04:14;;;;;;;;;;;;;;;25.55;20.30;100373.75;5447131;32;34441;-72
2023/04/21 09:07:35;;;;;;;;;;;;;;;27.84;17.83;100364.53;5439558;32;44459;-63
2023/04/21 09:10:49;;;;;;;;;;;;;;;28.52;17.04;100356.69;5450037;32;35529;-62
2023/04/21 09:13:55;;;;;;;;;;;;;;;25.62;19.77;100366.72;5443086;32;36046;-73
2023/04/21 09:17:01;;;;;;;;;;;;;;;27.27;18.26;100351.91;5449472;32;35496;-59
2023/04/21 09:20:23;;;;;;;;;;;;;;;24.18;21.51;100358.69;5452738;32;34821;-70
2023/04/21 09:23:25;;;;;;;;;;;;;;;27.28;18.83;100342.81;5436479;32;37316;-62
2023/04/21 09:26:27;;;;;;;;;;;;;;;25.58;20.04;100360.81;5452277;32;34518;-64
2023/04/21 09:29:29;;;;;;;;;;;;;;;23.71;21.86;100362.25;5420565;32;35456;-63
2023/04/21 09:32:36;;;;;;;;;;;;;;;24.56;21.61;100347.75;5427761;32;34247;-62
2023/04/21 09:35:39;;;;;;;;;;;;;;;27.21;18.55;100331.00;5444096;32;35995;-76
2023/04/21 09:38:40;;;;;;;;;;;;;;;26.67;19.27;100335.97;5450337;32;46714;-64
2023/04/21 09:41:43;;;;;;;;;;;;;;;25.19;20.19;100343.38;5457561;32;34128;-71
2023/04/21 09:44:45;;;;;;;;;;;;;;;26.61;19.02;100329.41;5455147;32;34578;-65
2023/04/21 09:47:58;;;;;;;;;;;;;;;28.96;17.02;100322.81;5446950;32;34368;-86
2023/04/21 09:51:00;;;;;;;;;;;;;;;27.14;18.60;100322.75;5437864;32;37007;-63
2023/04/21 09:54:23;;;;;;;;;;;;;;;28.29;17.31;100310.69;5439916;32;34722;-65
2023/04/21 09:57:28;;;;;;;;;;;;;;;27.51;18.12;100322.22;5443224;32;34008;-84
2023/04/21 10:00:30;;;;;;;;;;;;;;;30.36;15.40;100315.84;5440257;32;35548;-65
2023/04/21 10:03:32;;;;;;;;;;;;;;;29.13;16.45;100317.12;5469816;32;34371;-69
2023/04/21 10:06:35;;;;;;;;;;;;;;;27.34;18.41;100307.06;5441405;32;34313;-71
2023/04/21 10:09:48;;;;;;;;;;;;;;;29.23;16.71;100314.13;5457694;32;35274;-74
2023/04/21 10:12:50;;;;;;;;;;;;;;;30.55;15.33;100296.25;5435411;32;44714;-63
2023/04/21 10:16:01;;;;;;;;;;;;;;;30.60;15.39;100301.09;5447799;32;35145;-72
2023/04/21 10:19:23;;;;;;;;;;;;;;;28.63;16.64;100303.25;5441345;32;35459;-73
2023/04/21 10:22:29;;;;;;;;;;;;;;;26.14;19.70;100302.94;5431108;32;34736;-72
2023/04/21 10:25:31;;;;;;;;;;;;;;;27.36;18.64;100304.16;5453432;32;34316;-63
2023/04/21 10:28:40;;;;;;;;;;;;;;;30.24;16.10;100287.53;5449674;32;34755;-66
2023/04/21 10:31:50;;;;;;;;;;;;;;;27.77;18.38;100296.88;5430413;32;45479;-72
2023/04/21 10:34:52;;;;;;;;;;;;;;;28.30;17.80;100282.62;5443525;32;35373;-65
2023/04/21 10:37:54;;;;;;;;;;;;;;;27.98;18.44;100283.63;5443399;32;35439;-63
2023/04/21 10:41:07;;;;;;;;;;;;;;;27.17;19.29;100289.19;5457398;32;34828;-71
2023/04/21 10:44:10;;;;;;;;;;;;;;;26.52;19.87;100279.16;5427635;32;34425;-62
2023/04/21 10:47:12;;;;;;;;;;;;;;;24.95;21.36;100288.34;5446290;32;44368;-63
2023/04/21 10:50:16;;;;;;;;;;;;;;;24.87;21.29;100284.75;5449435;32;36977;-72
2023/04/21 10:53:18;;;;;;;;;;;;;;;25.49;20.93;100285.56;5445541;32;34756;-73
2023/04/21 10:56:20;;;;;;;;;;;;;;;25.61;20.81;100278.91;5437820;32;35546;-63
2023/04/21 10:59:22;;;;;;;;;;;;;;;24.03;22.75;100285.84;5445286;32;34863;-71
2023/04/21 11:02:24;;;;;;;;;;;;;;;25.01;21.47;100286.88;5450757;32;34344;-76
2023/04/21 11:05:33;;;;;;;;;;;;;;;24.68;21.66;100275.84;5430697;32;34953;-69
2023/04/21 11:08:37;;;;;;;;;;;;;;;24.98;21.86;100279.12;5447261;32;34970;-62
2023/04/21 11:11:39;;;;;;;;;;;;;;;23.85;22.90;100277.72;5450294;32;34214;-63
2023/04/21 11:14:41;;;;;;;;;;;;;;;23.32;23.82;100274.78;5447287;32;44585;-71
2023/04/21 11:17:44;;;;;;;;;;;;;;;24.07;22.59;100270.25;5443206;32;35055;-71
2023/04/21 11:20:46;;;;;;;;;;;;;;;22.13;24.74;100263.28;5446178;32;35523;-61
2023/04/21 11:23:49;;;;;;;;;;;;;;;22.20;24.66;100276.12;5437779;32;35639;-62
2023/04/21 11:26:51;;;;;;;;;;;;;;;21.77;25.30;100282.56;5433743;32;35507;-70
2023/04/21 11:29:53;;;;;;;;;;;;;;;21.26;25.88;100283.38;5432188;32;33443;-63
2023/04/21 11:32:55;;;;;;;;;;;;;;;22.82;24.15;100273.09;5442952;32;34780;-62
2023/04/21 11:35:58;;;;;;;;;;;;;;;22.13;24.91;100271.31;5433839;32;36016;-63
2023/04/21 11:39:08;;;;;;;;;;;;;;;22.05;25.22;100270.28;5445458;32;34905;-72
2023/04/21 11:42:11;;;;;;;;;;;;;;;21.09;25.99;100268.78;5438691;32;43760;-63
2023/04/21 11:45:17;;;;;;;;;;;;;;;21.48;25.83;100269.88;5439535;32;35398;-72
2023/04/21 11:48:22;;;;;;;;;;;;;;;21.74;25.24;100264.94;5431206;32;35590;-61
2023/04/21 11:51:24;;;;;;;;;;;;;;;21.56;25.49;100250.50;5432398;32;36603;-63
2023/04/21 11:54:28;;;;;;;;;;;;;;;20.56;26.78;100274.13;5436689;32;35032;-62
2023/04/21 11:57:31;;;;;;;;;;;;;;;22.04;25.21;100264.06;5431786;32;35032;-70
2023/04/21 12:00:33;;;;;;;;;;;;;;;21.75;25.52;100255.94;5427085;32;33471;-63
2023/04/21 12:03:35;;;;;;;;;;;;;;;21.51;26.15;100260.75;5422338;32;34735;-62
2023/04/21 12:06:37;;;;;;;;;;;;;;;22.12;25.06;100248.22;5434026;32;34797;-71
2023/04/21 12:09:39;;;;;;;;;;;;;;;23.26;23.77;100252.06;5440183;32;35390;-62
2023/04/21 12:12:42;;;;;;;;;;;;;;;22.55;24.80;100248.84;5441424;32;44983;-62
2023/04/21 12:15:44;;;;;;;;;;;;;;;21.99;25.15;100252.09;5435099;32;35999;-71
2023/04/21 12:18:49;;;;;;;;;;;;;;;21.90;25.48;100248.41;5444761;32;34496;-63
2023/04/21 12:21:57;;;;;;;;;;;;;;;23.24;24.04;100246.81;5448125;32;35647;-70
2023/04/21 12:24:59;;;;;;;;;;;;;;;22.80;24.33;100242.94;5444760;32;35608;-71
2023/04/21 12:28:01;;;;;;;;;;;;;;;21.61;25.77;100249.12;5447455;32;35430;-72
2023/04/21 12:31:03;;;;;;;;;;;;;;;23.63;23.68;100232.47;5412526;32;35208;-61
2023/04/21 12:34:05;;;;;;;;;;;;;;;23.61;23.17;100229.94;5432998;32;34795;-69
2023/04/21 12:37:07;;;;;;;;;;;;;;;23.01;24.20;100229.38;5436633;32;35095;-73
2023/04/21 12:40:09;;;;;;;;;;;;;;;22.30;24.82;100236.84;5439913;32;34857;-72
2023/04/21 12:43:11;;;;;;;;;;;;;;;21.42;25.58;100232.16;5447631;32;44787;-63
2023/04/21 12:46:13;;;;;;;;;;;;;;;22.42;24.67;100222.34;5438029;32;34850;-63
2023/04/21 12:49:16;;;;;;;;;;;;;;;20.92;26.68;100231.94;5424580;32;35141;-63
2023/04/21 12:52:18;;;;;;;;;;;;;;;21.87;25.42;100228.09;5446256;32;35160;-63
2023/04/21 12:55:21;;;;;;;;;;;;;;;21.75;25.55;100228.34;5435257;32;34423;-70
2023/04/21 12:58:23;;;;;;;;;;;;;;;21.21;26.66;100234.81;5428606;32;35471;-70
2023/04/21 13:01:25;;;;;;;;;;;;;;;21.21;26.65;100226.81;5436890;32;36681;-71
2023/04/21 13:04:27;;;;;;;;;;;;;;;21.39;26.72;100227.09;5443634;32;36815;-70
2023/04/21 13:07:30;;;;;;;;;;;;;;;20.66;27.27;100226.13;5438640;32;34519;-72
2023/04/21 13:10:32;;;;;;;;;;;;;;;20.80;26.64;100224.00;5441092;32;35666;-63
2023/04/21 13:13:34;;;;;;;;;;;;;;;21.15;26.15;100216.63;5445254;32;35333;-62
2023/04/21 13:16:36;;;;;;;;;;;;;;;20.47;27.42;100224.13;5444343;32;35646;-63
2023/04/21 13:19:38;;;;;;;;;;;;;;;21.39;26.19;100211.03;5439868;32;34911;-71
2023/04/21 13:22:40;;;;;;;;;;;;;;;20.70;26.58;100227.56;5440063;32;35373;-72
2023/04/21 13:25:44;;;;;;;;;;;;;;;20.55;26.83;100227.03;5453730;32;46567;-63
2023/04/21 13:28:46;;;;;;;;;;;;;;;22.09;24.84;100211.03;5443816;32;35351;-63
2023/04/21 13:31:48;;;;;;;;;;;;;;;21.16;25.86;100216.50;5425573;32;35160;-63
2023/04/21 13:34:50;;;;;;;;;;;;;;;21.33;25.61;100212.41;5453669;32;35393;-64
2023/04/21 13:37:53;;;;;;;;;;;;;;;21.75;25.32;100212.28;5444425;32;34952;-70
2023/04/21 13:40:55;;;;;;;;;;;;;;;21.04;26.17;100215.72;5436566;32;34968;-69
2023/04/21 13:43:57;;;;;;;;;;;;;;;20.82;26.15;100208.69;5441540;32;36442;-63
2023/04/21 13:46:59;;;;;;;;;;;;;;;21.02;26.11;100215.00;5438155;32;35652;-70
2023/04/21 13:50:01;;;;;;;;;;;;;;;21.16;25.67;100215.66;5442561;32;35371;-63
2023/04/21 13:53:03;;;;;;;;;;;;;;;22.11;24.44;100197.50;5442850;32;35290;-71
2023/04/21 13:56:05;;;;;;;;;;;;;;;21.01;26.22;100201.78;5443661;32;35041;-62
2023/04/21 13:59:09;;;;;;;;;;;;;;;20.52;26.50;100195.25;5445883;32;37609;-72
2023/04/21 14:02:11;;;;;;;;;;;;;;;21.35;25.67;100197.94;5450601;32;44845;-72
2023/04/21 14:05:13;;;;;;;;;;;;;;;21.87;25.03;100189.81;5444119;32;34971;-70
2023/04/21 14:08:15;;;;;;;;;;;;;;;21.18;26.48;100181.62;5450821;32;35308;-72
2023/04/21 14:11:17;;;;;;;;;;;;;;;21.69;25.61;100175.38;5416082;32;839966;-62
2023/04/21 14:14:19;;;;;;;;;;;;;;;21.93;25.18;100178.56;5445611;32;34873;-62
2023/04/21 14:17:38;;;;;;;;;;;;;;;22.13;24.96;100164.25;5433507;32;34305;-71
2023/04/21 14:20:40;;;;;;;;;;;;;;;21.81;25.27;100177.81;5443167;32;36366;-63
2023/04/21 14:23:42;;;;;;;;;;;;;;;21.18;26.13;100176.28;5452719;32;35612;-71
2023/04/21 14:26:44;;;;;;;;;;;;;;;20.99;26.38;100174.34;5441784;32;34056;-63
2023/04/21 14:29:46;;;;;;;;;;;;;;;21.03;26.62;100168.59;5436701;32;35332;-63
2023/04/21 14:32:48;;;;;;;;;;;;;;;22.02;24.97;100163.50;5436488;32;35143;-64
2023/04/21 14:35:50;;;;;;;;;;;;;;;20.62;27.06;100168.63;5425238;32;34150;-71
2023/04/21 14:38:52;;;;;;;;;;;;;;;21.79;25.45;100154.88;5451399;32;34225;-63
2023/04/21 14:41:54;;;;;;;;;;;;;;;22.39;24.70;100156.50;5442750;32;34396;-63
2023/04/21 14:44:56;;;;;;;;;;;;;;;21.90;24.97;100160.13;5453049;32;34708;-71
2023/04/21 14:47:58;;;;;;;;;;;;;;;22.10;24.79;100159.19;5420616;32;34982;-63
2023/04/21 14:51:00;;;;;;;;;;;;;;;21.37;25.74;100147.00;5442821;32;35713;-63
2023/04/21 14:54:02;;;;;;;;;;;;;;;21.45;25.82;100160.56;5447419;32;35053;-72
2023/04/21 14:57:04;;;;;;;;;;;;;;;20.85;26.50;100164.00;5440297;32;34897;-63
2023/04/21 15:00:21;;;;;;;;;;;;;;;21.78;25.52;100139.81;5450694;32;44721;-62
2023/04/21 15:03:24;;;;;;;;;;;;;;;21.72;25.56;100153.75;5440046;32;36917;-64
2023/04/21 15:06:27;;;;;;;;;;;;;;;22.12;25.01;100151.84;5438714;32;34958;-64
2023/04/21 15:09:29;;;;;;;;;;;;;;;21.23;26.08;100144.66;5441689;32;34871;-73
2023/04/21 15:12:31;;;;;;;;;;;;;;;20.31;27.15;100148.97;5441404;32;35596;-64
2023/04/21 15:15:35;;;;;;;;;;;;;;;20.82;26.90;100139.25;5437048;32;35714;-72
2023/04/21 15:18:37;;;;;;;;;;;;;;;20.82;26.44;100135.75;5441207;32;35088;-63
2023/04/21 15:21:39;;;;;;;;;;;;;;;20.99;26.49;100143.13;5427345;32;34495;-62
2023/04/21 15:24:41;;;;;;;;;;;;;;;20.86;27.05;100138.97;5425787;32;44551;-71
2023/04/21 15:27:43;;;;;;;;;;;;;;;20.76;26.50;100141.59;5414019;32;35314;-73
2023/04/21 15:30:45;;;;;;;;;;;;;;;21.30;26.11;100136.00;5421864;32;35173;-72
2023/04/21 15:33:47;;;;;;;;;;;;;;;21.45;25.99;100135.66;5433302;32;34936;-62
2023/04/21 15:36:49;;;;;;;;;;;;;;;21.93;24.99;100134.91;5435033;32;34317;-72
2023/04/21 15:39:51;;;;;;;;;;;;;;;21.40;25.79;100141.41;5407165;32;35146;-63